Observations for CIAMPINO IT-AFB CV, Italy (LIRA)

LIRA 201950Z 14003KT 110V180 CAVOK 08/04 Q1025  
LIRA 201920Z VRB02KT CAVOK 08/04 Q1025  
LIRA 201850Z 12003KT 100V170 CAVOK 08/05 Q1025  
LIRA 201820Z VRB01KT CAVOK 09/04 Q1025  
LIRA 201750Z 10003KT 080V140 CAVOK 09/05 Q1024  
LIRA 201720Z VRB02KT CAVOK 10/05 Q1024  
LIRA 201650Z 27005KT CAVOK 11/05 Q1024  
LIRA 201620Z 27006KT 240V300 CAVOK 12/05 Q1023  
LIRA 201550Z 27007KT 240V320 CAVOK 13/05 Q1023  
LIRA 201520Z 27006KT 230V310 CAVOK 14/05 Q1023  
LIRA 201450Z 29005KT 230V340 CAVOK 14/04 Q1023  
LIRA 201420Z 31004KT 280V020 CAVOK 14/03 Q1023  
LIRA 201350Z 31004KT 260V050 CAVOK 14/04 Q1024  
LIRA 201320Z 32007KT 280V340 CAVOK 13/03 Q1024  
LIRA 201250Z 32005KT 260V350 CAVOK 13/03 Q1024  
LIRA 201220Z 31005KT 280V360 CAVOK 12/03 Q1024  
LIRA 201150Z 01005KT 340V070 CAVOK 12/03 Q1024  
LIRA 201120Z 32005KT 280V020 CAVOK 12/03 Q1025  
LIRA 201050Z 04005KT 350V080 CAVOK 12/04 Q1025  
LIRA 201020Z 01007KT CAVOK 11/04 Q1025  
LIRA 200950Z 01007KT 350V050 9000 NSC 11/03 Q1025   
LIRA 200920Z 02006KT 350V050 9000 NSC 10/04 Q1025   
LIRA 200850Z 02005KT 9000 NSC 09/05 Q1025   
LIRA 200820Z 02005KT 9000 NSC 08/04 Q1024   
LIRA 200750Z 02004KT 9000 NSC 07/04 Q1024   
LIRA 200720Z 33003KT 8000 NSC 05/02 Q1024   
LIRA 200650Z VRB02KT 8000 NSC 03/01 Q1024   
LIRA 200620Z 06006KT 6000 FEW050 04/02 Q1023
LIRA 200550Z 05006KT 7000 FEW045 03/01 Q1023
LIRA 200520Z 02005KT 7000 FEW045 03/01 Q1023
LIRA 200450Z VRB01KT 8000 NSC 03/02 Q1023   
LIRA 200420Z 01003KT 310V060 7000 FEW045 04/02 Q1023
LIRA 200350Z VRB02KT 7000 SCT045 05/03 Q1023
LIRA 200320Z VRB01KT 7000 BKN040 05/02 Q1023
LIRA 200250Z 04002KT 7000 BKN040 05/03 Q1023
LIRA 200220Z VRB02KT 8000 BKN040 05/02 Q1023
LIRA 200150Z VRB02KT CAVOK 04/02 Q1023  
LIRA 200120Z 08004KT CAVOK 04/02 Q1023  
LIRA 200050Z 09003KT 030V140 CAVOK 04/02 Q1023  
LIRA 200020Z VRB02KT CAVOK 05/02 Q1024  
LIRA 192350Z 09003KT CAVOK 05/02 Q1023  
LIRA 192320Z 09004KT CAVOK 05/02 Q1023  
LIRA 192250Z 09004KT CAVOK 05/02 Q1023  
LIRA 192220Z 10005KT CAVOK 05/02 Q1023  
LIRA 192150Z 09004KT CAVOK 05/02 Q1023  
LIRA 192120Z 10004KT CAVOK 06/02 Q1023  
LIRA 192050Z 10004KT CAVOK 06/03 Q1023  
LIRA 192020Z 10004KT CAVOK 06/02 Q1023  
LIRA 191950Z 10004KT CAVOK 06/03 Q1023  
LIRA 191920Z 09004KT CAVOK 07/03 Q1023